sensor_id;sensor_type;location;lat;lon;timestamp;pressure;altitude;pressure_sealevel;temperature;humidity
24752;BME280;27246;52.376;4.628;2023-03-03T00:03:03;102485.56;;;4.34;84.07
24752;BME280;27246;52.376;4.628;2023-03-03T00:08:06;102482.84;;;4.47;84.20
24752;BME280;27246;52.376;4.628;2023-03-03T00:13:22;102485.50;;;4.48;83.56
24752;BME280;27246;52.376;4.628;2023-03-03T00:18:32;102491.38;;;4.42;83.62
24752;BME280;27246;52.376;4.628;2023-03-03T00:23:37;102482.31;;;4.41;83.78
24752;BME280;27246;52.376;4.628;2023-03-03T00:28:43;102489.19;;;4.47;83.34
24752;BME280;27246;52.376;4.628;2023-03-03T00:33:52;102489.94;;;4.49;83.43
24752;BME280;27246;52.376;4.628;2023-03-03T00:38:59;102488.88;;;4.52;83.24
24752;BME280;27246;52.376;4.628;2023-03-03T00:44:43;102495.31;;;4.51;83.25
24752;BME280;27246;52.376;4.628;2023-03-03T00:49:45;102498.13;;;4.49;82.78
24752;BME280;27246;52.376;4.628;2023-03-03T00:54:47;102494.63;;;4.47;82.75
24752;BME280;27246;52.376;4.628;2023-03-03T00:59:49;102501.88;;;4.48;82.81
24752;BME280;27246;52.376;4.628;2023-03-03T01:04:52;102494.53;;;4.49;82.35
24752;BME280;27246;52.376;4.628;2023-03-03T01:09:57;102502.06;;;4.45;82.55
24752;BME280;27246;52.376;4.628;2023-03-03T01:15:00;102504.91;;;4.44;82.51
24752;BME280;27246;52.376;4.628;2023-03-03T01:20:03;102504.50;;;4.50;81.98
24752;BME280;27246;52.376;4.628;2023-03-03T01:25:05;102499.69;;;4.53;81.76
24752;BME280;27246;52.376;4.628;2023-03-03T01:30:07;102502.63;;;4.50;81.21
24752;BME280;27246;52.376;4.628;2023-03-03T01:35:10;102504.50;;;4.50;81.46
24752;BME280;27246;52.376;4.628;2023-03-03T01:40:17;102504.25;;;4.40;81.37
24752;BME280;27246;52.376;4.628;2023-03-03T01:45:26;102500.31;;;4.44;81.55
24752;BME280;27246;52.376;4.628;2023-03-03T01:50:41;102501.88;;;4.48;81.05
24752;BME280;27246;52.376;4.628;2023-03-03T01:55:46;102491.81;;;4.49;81.15
24752;BME280;27246;52.376;4.628;2023-03-03T02:00:54;102484.63;;;4.48;81.42
24752;BME280;27246;52.376;4.628;2023-03-03T02:06:03;102489.31;;;4.46;81.79
24752;BME280;27246;52.376;4.628;2023-03-03T02:11:07;102487.22;;;4.49;81.73
24752;BME280;27246;52.376;4.628;2023-03-03T02:16:09;102487.53;;;4.45;82.57
24752;BME280;27246;52.376;4.628;2023-03-03T02:21:15;102476.63;;;4.45;82.25
24752;BME280;27246;52.376;4.628;2023-03-03T02:26:39;102479.16;;;4.48;82.37
24752;BME280;27246;52.376;4.628;2023-03-03T02:31:43;102480.34;;;4.44;82.35
24752;BME280;27246;52.376;4.628;2023-03-03T02:36:45;102486.09;;;4.39;82.84
24752;BME280;27246;52.376;4.628;2023-03-03T02:42:17;102475.00;;;4.42;82.37
24752;BME280;27246;52.376;4.628;2023-03-03T02:47:28;102479.00;;;4.36;83.07
24752;BME280;27246;52.376;4.628;2023-03-03T02:52:29;102481.06;;;4.33;82.78
24752;BME280;27246;52.376;4.628;2023-03-03T02:57:31;102474.28;;;4.26;83.27
24752;BME280;27246;52.376;4.628;2023-03-03T03:02:33;102471.81;;;4.08;84.02
24752;BME280;27246;52.376;4.628;2023-03-03T03:07:36;102478.63;;;4.15;84.13
24752;BME280;27246;52.376;4.628;2023-03-03T03:12:39;102489.53;;;4.15;84.04
24752;BME280;27246;52.376;4.628;2023-03-03T03:17:42;102481.22;;;4.17;83.57
24752;BME280;27246;52.376;4.628;2023-03-03T03:22:45;102477.06;;;4.11;83.90
24752;BME280;27246;52.376;4.628;2023-03-03T03:27:47;102492.25;;;4.15;84.10
24752;BME280;27246;52.376;4.628;2023-03-03T03:32:49;102490.28;;;4.17;83.43
24752;BME280;27246;52.376;4.628;2023-03-03T03:37:51;102491.13;;;4.05;83.72
24752;BME280;27246;52.376;4.628;2023-03-03T03:42:53;102489.25;;;4.06;84.13
24752;BME280;27246;52.376;4.628;2023-03-03T03:47:56;102494.72;;;4.06;83.78
24752;BME280;27246;52.376;4.628;2023-03-03T03:52:58;102499.31;;;4.05;83.72
24752;BME280;27246;52.376;4.628;2023-03-03T03:58:00;102504.94;;;4.02;83.95
24752;BME280;27246;52.376;4.628;2023-03-03T04:03:02;102502.34;;;3.86;84.37
24752;BME280;27246;52.376;4.628;2023-03-03T04:08:05;102515.78;;;3.89;84.08
24752;BME280;27246;52.376;4.628;2023-03-03T04:13:07;102514.72;;;3.77;84.46
24752;BME280;27246;52.376;4.628;2023-03-03T04:18:09;102502.19;;;3.75;84.88
24752;BME280;27246;52.376;4.628;2023-03-03T04:23:12;102508.19;;;3.80;84.61
24752;BME280;27246;52.376;4.628;2023-03-03T04:28:16;102513.94;;;3.75;84.21
24752;BME280;27246;52.376;4.628;2023-03-03T04:33:18;102507.81;;;3.72;84.39
24752;BME280;27246;52.376;4.628;2023-03-03T04:38:20;102518.03;;;3.68;84.72
24752;BME280;27246;52.376;4.628;2023-03-03T04:43:23;102517.66;;;3.60;85.07
24752;BME280;27246;52.376;4.628;2023-03-03T04:48:26;102519.31;;;3.63;85.03
24752;BME280;27246;52.376;4.628;2023-03-03T04:53:28;102522.22;;;3.59;85.00
24752;BME280;27246;52.376;4.628;2023-03-03T04:58:30;102524.28;;;3.56;85.37
24752;BME280;27246;52.376;4.628;2023-03-03T05:03:31;102528.38;;;3.49;85.41
24752;BME280;27246;52.376;4.628;2023-03-03T05:08:33;102523.50;;;3.54;85.57
24752;BME280;27246;52.376;4.628;2023-03-03T05:13:35;102522.31;;;3.58;85.64
24752;BME280;27246;52.376;4.628;2023-03-03T05:18:37;102523.00;;;3.61;85.89
24752;BME280;27246;52.376;4.628;2023-03-03T05:23:39;102522.91;;;3.63;85.89
24752;BME280;27246;52.376;4.628;2023-03-03T05:28:40;102510.06;;;3.65;85.65
24752;BME280;27246;52.376;4.628;2023-03-03T05:33:42;102514.34;;;3.69;85.29
24752;BME280;27246;52.376;4.628;2023-03-03T05:38:44;102516.97;;;3.71;84.80
24752;BME280;27246;52.376;4.628;2023-03-03T05:43:46;102516.97;;;3.71;85.04
24752;BME280;27246;52.376;4.628;2023-03-03T05:48:47;102515.59;;;3.64;85.12
24752;BME280;27246;52.376;4.628;2023-03-03T05:53:49;102520.97;;;3.65;85.26
24752;BME280;27246;52.376;4.628;2023-03-03T05:58:50;102512.88;;;3.64;85.17
24752;BME280;27246;52.376;4.628;2023-03-03T06:03:52;102520.88;;;3.67;85.14
24752;BME280;27246;52.376;4.628;2023-03-03T06:08:54;102520.75;;;3.68;85.03
24752;BME280;27246;52.376;4.628;2023-03-03T06:13:57;102531.28;;;3.60;84.93
24752;BME280;27246;52.376;4.628;2023-03-03T06:18:59;102536.72;;;3.60;85.21
24752;BME280;27246;52.376;4.628;2023-03-03T06:24:01;102538.88;;;3.55;85.58
24752;BME280;27246;52.376;4.628;2023-03-03T06:29:03;102540.63;;;3.56;85.53
24752;BME280;27246;52.376;4.628;2023-03-03T06:34:05;102531.50;;;3.57;85.24
24752;BME280;27246;52.376;4.628;2023-03-03T06:39:06;102534.59;;;3.51;85.53
24752;BME280;27246;52.376;4.628;2023-03-03T06:44:08;102534.22;;;3.43;85.55
24752;BME280;27246;52.376;4.628;2023-03-03T06:49:12;102541.41;;;3.44;85.75
24752;BME280;27246;52.376;4.628;2023-03-03T06:54:15;102556.56;;;3.48;85.68
24752;BME280;27246;52.376;4.628;2023-03-03T06:59:19;102553.66;;;3.51;85.48
24752;BME280;27246;52.376;4.628;2023-03-03T07:04:28;102552.78;;;3.50;85.91
24752;BME280;27246;52.376;4.628;2023-03-03T07:09:31;102560.78;;;3.53;85.92
24752;BME280;27246;52.376;4.628;2023-03-03T07:14:34;102563.09;;;3.59;86.29
24752;BME280;27246;52.376;4.628;2023-03-03T07:19:40;102570.31;;;3.60;86.00
24752;BME280;27246;52.376;4.628;2023-03-03T07:24:48;102573.00;;;3.46;88.04
24752;BME280;27246;52.376;4.628;2023-03-03T07:35:35;102587.31;;;3.35;89.63
24752;BME280;27246;52.376;4.628;2023-03-03T07:40:47;102586.06;;;3.70;88.77
24752;BME280;27246;52.376;4.628;2023-03-03T07:45:50;102586.06;;;3.70;89.27
24752;BME280;27246;52.376;4.628;2023-03-03T07:50:51;102593.94;;;3.89;88.89
24752;BME280;27246;52.376;4.628;2023-03-03T07:55:53;102596.06;;;4.12;89.36
24752;BME280;27246;52.376;4.628;2023-03-03T08:06:41;102612.56;;;4.52;87.84
24752;BME280;27246;52.376;4.628;2023-03-03T08:11:55;102610.00;;;4.64;86.49
24752;BME280;27246;52.376;4.628;2023-03-03T08:16:58;102609.63;;;4.82;85.64
24752;BME280;27246;52.376;4.628;2023-03-03T08:22:14;102615.09;;;5.10;84.80
24752;BME280;27246;52.376;4.628;2023-03-03T08:27:16;102620.97;;;5.56;82.93
24752;BME280;27246;52.376;4.628;2023-03-03T08:32:18;102624.69;;;5.81;81.63
24752;BME280;27246;52.376;4.628;2023-03-03T08:37:20;102626.19;;;6.11;79.62
24752;BME280;27246;52.376;4.628;2023-03-03T08:42:21;102624.97;;;6.15;77.87
24752;BME280;27246;52.376;4.628;2023-03-03T08:47:24;102625.28;;;6.36;78.33
24752;BME280;27246;52.376;4.628;2023-03-03T08:52:46;102635.06;;;6.88;76.09
24752;BME280;27246;52.376;4.628;2023-03-03T08:57:48;102637.50;;;7.39;73.40
24752;BME280;27246;52.376;4.628;2023-03-03T09:02:50;102634.38;;;7.79;70.70
24752;BME280;27246;52.376;4.628;2023-03-03T09:07:52;102639.75;;;7.81;70.12
24752;BME280;27246;52.376;4.628;2023-03-03T09:12:55;102639.03;;;7.44;71.63
24752;BME280;27246;52.376;4.628;2023-03-03T09:18:10;102634.13;;;7.82;69.92
24752;BME280;27246;52.376;4.628;2023-03-03T09:28:38;102644.63;;;8.34;65.86
24752;BME280;27246;52.376;4.628;2023-03-03T09:33:43;102636.78;;;8.18;64.38
24752;BME280;27246;52.376;4.628;2023-03-03T09:38:45;102644.13;;;8.40;63.28
24752;BME280;27246;52.376;4.628;2023-03-03T09:54:49;102640.00;;;9.00;62.12
24752;BME280;27246;52.376;4.628;2023-03-03T10:05:19;102636.28;;;8.35;64.57
24752;BME280;27246;52.376;4.628;2023-03-03T10:10:47;102646.88;;;8.29;61.36
24752;BME280;27246;52.376;4.628;2023-03-03T10:21:38;102653.63;;;7.91;62.93
24752;BME280;27246;52.376;4.628;2023-03-03T10:26:50;102658.38;;;7.89;60.45
24752;BME280;27246;52.376;4.628;2023-03-03T10:49:24;102647.72;;;7.84;62.47
24752;BME280;27246;52.376;4.628;2023-03-03T11:00:14;102637.50;;;8.43;57.94
24752;BME280;27246;52.376;4.628;2023-03-03T11:05:41;102640.09;;;8.67;57.42
24752;BME280;27246;52.376;4.628;2023-03-03T11:10:46;102640.84;;;9.45;53.42
24752;BME280;27246;52.376;4.628;2023-03-03T11:21:33;102634.84;;;9.07;52.61
24752;BME280;27246;52.376;4.628;2023-03-03T11:31:55;102645.13;;;8.50;56.30
24752;BME280;27246;52.376;4.628;2023-03-03T11:37:05;102649.81;;;8.71;55.86
24752;BME280;27246;52.376;4.628;2023-03-03T11:42:27;102642.03;;;8.87;55.44
24752;BME280;27246;52.376;4.628;2023-03-03T11:47:38;102641.88;;;8.45;55.05
24752;BME280;27246;52.376;4.628;2023-03-03T11:52:45;102642.38;;;8.39;54.16
24752;BME280;27246;52.376;4.628;2023-03-03T11:58:07;102634.63;;;8.99;52.99
24752;BME280;27246;52.376;4.628;2023-03-03T12:14:16;102620.75;;;8.68;52.77
24752;BME280;27246;52.376;4.628;2023-03-03T12:30:02;102606.09;;;8.79;53.39
24752;BME280;27246;52.376;4.628;2023-03-03T12:35:24;102602.91;;;8.95;53.72
24752;BME280;27246;52.376;4.628;2023-03-03T12:40:30;102611.47;;;9.13;54.72
24752;BME280;27246;52.376;4.628;2023-03-03T12:45:45;102616.78;;;8.93;53.69
24752;BME280;27246;52.376;4.628;2023-03-03T12:56:28;102607.94;;;8.90;54.69
24752;BME280;27246;52.376;4.628;2023-03-03T13:01:47;102610.91;;;8.66;54.39
24752;BME280;27246;52.376;4.628;2023-03-03T13:07:05;102600.16;;;8.63;54.20
24752;BME280;27246;52.376;4.628;2023-03-03T13:12:45;102604.31;;;8.46;54.46
24752;BME280;27246;52.376;4.628;2023-03-03T13:23:34;102604.91;;;8.49;53.94
24752;BME280;27246;52.376;4.628;2023-03-03T13:28:44;102606.91;;;8.47;53.69
24752;BME280;27246;52.376;4.628;2023-03-03T13:33:55;102595.38;;;8.76;54.66
24752;BME280;27246;52.376;4.628;2023-03-03T13:39:01;102602.16;;;8.60;54.01
24752;BME280;27246;52.376;4.628;2023-03-03T13:44:23;102600.94;;;8.53;53.95
24752;BME280;27246;52.376;4.628;2023-03-03T13:55:16;102596.94;;;8.35;54.30
24752;BME280;27246;52.376;4.628;2023-03-03T14:21:56;102598.72;;;8.36;54.56
24752;BME280;27246;52.376;4.628;2023-03-03T14:27:20;102585.44;;;8.41;55.02
24752;BME280;27246;52.376;4.628;2023-03-03T14:32:26;102584.00;;;8.26;54.76
24752;BME280;27246;52.376;4.628;2023-03-03T14:37:46;102585.25;;;8.21;54.98
24752;BME280;27246;52.376;4.628;2023-03-03T14:47:54;102575.38;;;8.41;54.93
24752;BME280;27246;52.376;4.628;2023-03-03T14:53:06;102578.91;;;8.21;54.37
24752;BME280;27246;52.376;4.628;2023-03-03T14:58:27;102576.50;;;8.28;53.57
24752;BME280;27246;52.376;4.628;2023-03-03T15:03:29;102567.91;;;8.10;53.63
24752;BME280;27246;52.376;4.628;2023-03-03T15:08:34;102566.91;;;8.11;54.13
24752;BME280;27246;52.376;4.628;2023-03-03T15:13:37;102568.31;;;8.05;54.21
24752;BME280;27246;52.376;4.628;2023-03-03T15:24:16;102553.06;;;8.12;54.25
24752;BME280;27246;52.376;4.628;2023-03-03T15:34:47;102543.72;;;7.92;54.87
24752;BME280;27246;52.376;4.628;2023-03-03T15:40:02;102547.34;;;7.81;55.65
24752;BME280;27246;52.376;4.628;2023-03-03T15:50:37;102550.47;;;7.88;55.71
24752;BME280;27246;52.376;4.628;2023-03-03T16:06:29;102549.97;;;7.83;59.01
24752;BME280;27246;52.376;4.628;2023-03-03T16:23:16;102547.34;;;7.81;58.95
24752;BME280;27246;52.376;4.628;2023-03-03T16:39:11;102555.94;;;7.54;56.57
24752;BME280;27246;52.376;4.628;2023-03-03T16:50:06;102545.31;;;7.50;57.59
24752;BME280;27246;52.376;4.628;2023-03-03T16:55:36;102546.72;;;7.67;57.63
24752;BME280;27246;52.376;4.628;2023-03-03T17:06:33;102550.81;;;7.50;59.67
24752;BME280;27246;52.376;4.628;2023-03-03T17:12:13;102557.53;;;7.46;60.07
24752;BME280;27246;52.376;4.628;2023-03-03T17:28:33;102565.44;;;7.73;59.43
24752;BME280;27246;52.376;4.628;2023-03-03T17:33:45;102564.78;;;7.58;58.24
24752;BME280;27246;52.376;4.628;2023-03-03T17:39:12;102569.50;;;7.45;58.81
24752;BME280;27246;52.376;4.628;2023-03-03T17:44:23;102573.47;;;7.40;59.23
24752;BME280;27246;52.376;4.628;2023-03-03T18:00:35;102580.59;;;7.43;59.94
24752;BME280;27246;52.376;4.628;2023-03-03T18:05:58;102587.16;;;7.40;60.31
24752;BME280;27246;52.376;4.628;2023-03-03T18:27:33;102594.75;;;7.37;60.68
24752;BME280;27246;52.376;4.628;2023-03-03T18:32:46;102595.00;;;7.34;61.17
24752;BME280;27246;52.376;4.628;2023-03-03T18:48:48;102590.81;;;7.41;61.31
24752;BME280;27246;52.376;4.628;2023-03-03T18:59:09;102596.38;;;7.39;61.62
24752;BME280;27246;52.376;4.628;2023-03-03T19:09:49;102595.88;;;7.34;61.69
24752;BME280;27246;52.376;4.628;2023-03-03T19:14:57;102594.75;;;7.37;62.34
24752;BME280;27246;52.376;4.628;2023-03-03T19:20:04;102604.41;;;7.54;62.36
24752;BME280;27246;52.376;4.628;2023-03-03T19:25:16;102598.13;;;7.40;62.59
24752;BME280;27246;52.376;4.628;2023-03-03T19:36:01;102601.84;;;7.39;62.75
24752;BME280;27246;52.376;4.628;2023-03-03T19:41:26;102600.88;;;7.40;62.90
24752;BME280;27246;52.376;4.628;2023-03-03T19:47:19;102602.47;;;7.32;62.81
24752;BME280;27246;52.376;4.628;2023-03-03T19:52:40;102609.69;;;7.33;62.89
24752;BME280;27246;52.376;4.628;2023-03-03T19:57:57;102618.28;;;7.28;62.92
24752;BME280;27246;52.376;4.628;2023-03-03T20:08:54;102614.06;;;7.35;63.28
24752;BME280;27246;52.376;4.628;2023-03-03T20:14:05;102621.06;;;7.39;63.23
24752;BME280;27246;52.376;4.628;2023-03-03T20:19:41;102628.13;;;7.31;63.58
24752;BME280;27246;52.376;4.628;2023-03-03T20:24:57;102619.66;;;7.34;62.93
24752;BME280;27246;52.376;4.628;2023-03-03T20:30:06;102626.34;;;7.43;62.46
24752;BME280;27246;52.376;4.628;2023-03-03T20:35:21;102634.50;;;7.78;62.10
24752;BME280;27246;52.376;4.628;2023-03-03T20:41:11;102636.63;;;7.63;61.99
24752;BME280;27246;52.376;4.628;2023-03-03T20:46:27;102632.59;;;7.45;62.18
24752;BME280;27246;52.376;4.628;2023-03-03T21:02:31;102636.47;;;7.53;62.52
24752;BME280;27246;52.376;4.628;2023-03-03T21:07:35;102642.44;;;7.47;62.81
24752;BME280;27246;52.376;4.628;2023-03-03T21:12:37;102648.66;;;7.49;62.65
24752;BME280;27246;52.376;4.628;2023-03-03T21:17:39;102644.53;;;7.44;62.76
24752;BME280;27246;52.376;4.628;2023-03-03T21:22:42;102655.72;;;7.40;63.04
24752;BME280;27246;52.376;4.628;2023-03-03T21:27:44;102646.97;;;7.35;63.13
24752;BME280;27246;52.376;4.628;2023-03-03T21:32:47;102639.91;;;7.44;62.96
24752;BME280;27246;52.376;4.628;2023-03-03T21:42:56;102650.81;;;7.57;62.79
24752;BME280;27246;52.376;4.628;2023-03-03T21:47:59;102650.47;;;7.37;62.93
24752;BME280;27246;52.376;4.628;2023-03-03T21:53:04;102650.13;;;7.42;63.63
24752;BME280;27246;52.376;4.628;2023-03-03T21:58:05;102647.38;;;7.42;63.18
24752;BME280;27246;52.376;4.628;2023-03-03T22:03:07;102645.16;;;7.47;63.83
24752;BME280;27246;52.376;4.628;2023-03-03T22:08:09;102652.34;;;7.84;64.06
24752;BME280;27246;52.376;4.628;2023-03-03T22:13:10;102654.31;;;7.70;62.87
24752;BME280;27246;52.376;4.628;2023-03-03T22:18:13;102654.91;;;7.51;63.89
24752;BME280;27246;52.376;4.628;2023-03-03T22:23:15;102646.00;;;7.83;63.36
24752;BME280;27246;52.376;4.628;2023-03-03T22:28:19;102641.09;;;7.64;63.27
24752;BME280;27246;52.376;4.628;2023-03-03T22:33:20;102648.78;;;7.48;63.12
24752;BME280;27246;52.376;4.628;2023-03-03T22:38:22;102643.34;;;7.59;63.21
24752;BME280;27246;52.376;4.628;2023-03-03T22:43:25;102634.19;;;7.47;63.47
24752;BME280;27246;52.376;4.628;2023-03-03T22:48:30;102645.66;;;7.41;63.50
24752;BME280;27246;52.376;4.628;2023-03-03T22:53:32;102650.59;;;7.82;64.00
24752;BME280;27246;52.376;4.628;2023-03-03T22:58:35;102637.31;;;7.54;63.77
24752;BME280;27246;52.376;4.628;2023-03-03T23:03:37;102636.56;;;7.52;64.28
24752;BME280;27246;52.376;4.628;2023-03-03T23:08:40;102646.59;;;7.40;64.92
24752;BME280;27246;52.376;4.628;2023-03-03T23:13:41;102644.34;;;7.34;64.94
24752;BME280;27246;52.376;4.628;2023-03-03T23:18:43;102642.50;;;7.34;65.34
24752;BME280;27246;52.376;4.628;2023-03-03T23:23:44;102644.41;;;7.45;65.37
24752;BME280;27246;52.376;4.628;2023-03-03T23:28:46;102634.09;;;7.49;64.86
24752;BME280;27246;52.376;4.628;2023-03-03T23:33:49;102627.38;;;7.29;64.68
24752;BME280;27246;52.376;4.628;2023-03-03T23:38:51;102628.72;;;7.23;64.81
24752;BME280;27246;52.376;4.628;2023-03-03T23:43:52;102631.63;;;7.33;64.49
24752;BME280;27246;52.376;4.628;2023-03-03T23:48:54;102632.50;;;7.33;64.49
24752;BME280;27246;52.376;4.628;2023-03-03T23:53:56;102637.47;;;7.28;64.74
24752;BME280;27246;52.376;4.628;2023-03-03T23:58:59;102636.09;;;7.34;63.94
